createdAt,value
2023-01-29T00:00:22.342Z,97037.03
2023-01-29T00:02:49.163Z,97045.63
2023-01-29T00:05:27.625Z,97035.94
2023-01-29T00:07:56.543Z,97041.03
2023-01-29T00:10:24.507Z,97047.53
2023-01-29T00:12:51.854Z,97045.91
2023-01-29T00:15:18.901Z,97046.41
2023-01-29T00:17:45.505Z,97039.88
2023-01-29T00:20:12.497Z,97038.31
2023-01-29T00:22:39.148Z,97030.50
2023-01-29T00:25:06.257Z,97038.03
2023-01-29T00:27:32.892Z,97043.84
2023-01-29T00:30:13.137Z,97044.75
2023-01-29T00:32:40.808Z,97034.03
2023-01-29T00:35:08.764Z,97043.16
2023-01-29T00:37:35.751Z,97047.63
2023-01-29T00:40:02.394Z,97045.59
2023-01-29T00:42:47.476Z,97051.25
2023-01-29T00:45:15.101Z,97050.03
2023-01-29T00:47:41.775Z,97055.56
2023-01-29T00:50:10.826Z,97048.84
2023-01-29T00:52:37.863Z,97049.13
2023-01-29T00:55:05.984Z,97044.97
2023-01-29T00:57:33.983Z,97043.31
2023-01-29T01:00:01.214Z,97049.81
2023-01-29T01:02:46.797Z,97052.25
2023-01-29T01:05:17.950Z,97052.59
2023-01-29T01:07:52.349Z,97062.78
2023-01-29T01:10:25.432Z,97067.38
2023-01-29T01:12:56.384Z,97062.19
2023-01-29T01:15:25.490Z,97063.91
2023-01-29T01:17:54.390Z,97058.84
2023-01-29T01:20:21.225Z,97067.16
2023-01-29T01:22:47.866Z,97071.47
2023-01-29T01:25:14.694Z,97063.44
2023-01-29T01:27:41.451Z,97067.88
2023-01-29T01:30:14.980Z,97070.00
2023-01-29T01:32:43.181Z,97063.63
2023-01-29T01:35:11.419Z,97067.00
2023-01-29T01:37:38.823Z,97068.16
2023-01-29T01:40:12.932Z,97063.63
2023-01-29T01:42:40.372Z,97065.41
2023-01-29T01:45:17.718Z,97065.22
2023-01-29T01:47:48.210Z,97065.41
2023-01-29T01:50:37.350Z,97063.91
2023-01-29T01:53:11.438Z,97077.16
2023-01-29T01:55:48.387Z,97080.38
2023-01-29T01:58:21.512Z,97076.97
2023-01-29T02:00:48.073Z,97071.53
2023-01-29T02:03:33.324Z,97065.75
2023-01-29T02:06:19.615Z,97074.63
2023-01-29T02:09:23.695Z,97068.81
2023-01-29T02:11:51.469Z,97069.34
2023-01-29T02:14:18.135Z,97071.31
2023-01-29T02:16:44.795Z,97068.38
2023-01-29T02:19:27.912Z,97072.06
2023-01-29T02:22:12.329Z,97071.22
2023-01-29T02:24:58.489Z,97070.53
2023-01-29T02:27:50.475Z,97075.53
2023-01-29T02:30:38.681Z,97063.44
2023-01-29T02:33:26.411Z,97062.38
2023-01-29T02:36:17.727Z,97059.09
2023-01-29T02:39:05.363Z,97065.50
2023-01-29T02:41:47.508Z,97073.59
2023-01-29T02:44:21.167Z,97066.06
2023-01-29T02:47:00.339Z,97071.66
2023-01-29T02:49:56.337Z,97073.59
2023-01-29T02:52:34.016Z,97086.69
2023-01-29T02:55:10.451Z,97087.69
2023-01-29T02:57:41.579Z,97090.31
2023-01-29T03:00:16.294Z,97094.97
2023-01-29T03:02:49.168Z,97098.25
2023-01-29T03:05:24.180Z,97090.59
2023-01-29T03:07:56.549Z,97094.47
2023-01-29T03:10:53.683Z,97096.59
2023-01-29T03:13:33.055Z,97093.50
2023-01-29T03:16:11.190Z,97090.75
2023-01-29T03:18:46.147Z,97090.13
2023-01-29T03:21:47.058Z,97097.78
2023-01-29T03:24:36.077Z,97094.13
2023-01-29T03:27:25.628Z,97092.91
2023-01-29T03:30:13.082Z,97082.25
2023-01-29T03:32:40.679Z,97083.47
2023-01-29T03:35:10.817Z,97089.31
2023-01-29T03:37:46.409Z,97095.28
2023-01-29T03:40:14.326Z,97094.56
2023-01-29T03:43:07.376Z,97090.66
2023-01-29T03:45:47.116Z,97092.28
2023-01-29T03:48:19.585Z,97086.94
2023-01-29T03:51:16.837Z,97083.63
2023-01-29T03:53:54.102Z,97081.25
2023-01-29T03:56:43.624Z,97081.59
2023-01-29T03:59:32.967Z,97058.34
2023-01-29T04:02:28.177Z,97054.25
2023-01-29T04:05:04.287Z,97051.53
2023-01-29T04:07:33.554Z,97044.47
2023-01-29T04:10:12.531Z,97049.97
2023-01-29T04:12:45.916Z,97051.41
2023-01-29T04:15:15.864Z,97046.16
2023-01-29T04:17:47.627Z,97046.94
2023-01-29T04:20:14.594Z,97049.16
2023-01-29T04:22:46.377Z,97047.81
2023-01-29T04:25:16.735Z,97036.47
2023-01-29T04:28:13.461Z,97031.00
2023-01-29T04:30:54.674Z,97038.41
2023-01-29T04:33:40.546Z,97041.25
2023-01-29T04:36:26.379Z,97040.09
2023-01-29T04:39:21.179Z,97043.38
2023-01-29T04:42:13.924Z,97028.34
2023-01-29T04:45:00.799Z,97018.06
2023-01-29T04:47:45.360Z,97033.50
2023-01-29T04:50:19.144Z,97029.03
2023-01-29T04:52:57.974Z,97033.72
2023-01-29T04:55:40.464Z,97033.22
2023-01-29T04:58:43.492Z,97033.03
2023-01-29T05:01:16.526Z,97040.50
2023-01-29T05:03:46.858Z,97044.00
2023-01-29T05:06:15.105Z,97046.22
2023-01-29T05:08:42.343Z,97047.63
2023-01-29T05:11:09.711Z,97045.75
2023-01-29T05:13:40.656Z,97042.28
2023-01-29T05:16:18.238Z,97046.91
2023-01-29T05:18:45.092Z,97042.84
2023-01-29T05:21:11.801Z,97055.03
2023-01-29T05:23:38.385Z,97059.56
2023-01-29T05:26:05.790Z,97054.56
2023-01-29T05:28:32.478Z,97054.53
2023-01-29T05:30:59.229Z,97058.44
2023-01-29T05:33:31.359Z,97054.38
2023-01-29T05:36:00.753Z,97055.56
2023-01-29T05:38:27.488Z,97048.66
2023-01-29T05:40:54.486Z,97056.44
2023-01-29T05:43:23.375Z,97056.66
2023-01-29T05:45:55.142Z,97057.69
2023-01-29T05:48:22.203Z,97049.38
2023-01-29T05:50:49.062Z,97059.91
2023-01-29T05:53:15.677Z,97056.06
2023-01-29T05:55:47.111Z,97066.00
2023-01-29T05:58:14.131Z,97066.00
2023-01-29T06:00:41.698Z,97070.25
2023-01-29T06:03:08.378Z,97067.84
2023-01-29T06:05:38.638Z,97064.78
2023-01-29T06:08:05.817Z,97062.97
2023-01-29T06:10:32.579Z,97059.91
2023-01-29T06:12:59.301Z,97059.91
2023-01-29T06:15:26.681Z,97064.38
2023-01-29T06:17:57.195Z,97069.84
2023-01-29T06:20:24.695Z,97074.72
2023-01-29T06:22:51.327Z,97074.31
2023-01-29T06:25:17.895Z,97073.50
2023-01-29T06:27:44.514Z,97068.22
2023-01-29T06:30:11.788Z,97062.09
2023-01-29T06:32:38.456Z,97075.16
2023-01-29T06:35:05.562Z,97065.38
2023-01-29T06:37:32.188Z,97069.88
2023-01-29T06:39:58.805Z,97069.44
2023-01-29T06:42:28.074Z,97067.81
2023-01-29T06:44:58.021Z,97076.34
2023-01-29T06:47:25.035Z,97074.06
2023-01-29T06:49:52.294Z,97072.81
2023-01-29T06:52:19.232Z,97076.66
2023-01-29T06:54:46.077Z,97078.25
2023-01-29T06:57:12.684Z,97071.09
2023-01-29T06:59:39.300Z,97064.97
2023-01-29T07:02:05.908Z,97061.47
2023-01-29T07:04:32.525Z,97073.09
2023-01-29T07:07:00.020Z,97076.56
2023-01-29T07:09:26.694Z,97069.53
2023-01-29T07:11:53.297Z,97066.00
2023-01-29T07:14:20.147Z,97066.06
2023-01-29T07:16:46.741Z,97069.31
2023-01-29T07:19:13.719Z,97061.19
2023-01-29T07:21:40.295Z,97064.78
2023-01-29T07:24:07.144Z,97067.59
2023-01-29T07:26:33.792Z,97069.16
2023-01-29T07:29:00.383Z,97072.00
2023-01-29T07:31:27.092Z,97067.50
2023-01-29T07:33:53.815Z,97072.00
2023-01-29T07:36:20.447Z,97072.19
2023-01-29T07:38:51.257Z,97071.84
2023-01-29T07:41:17.881Z,97072.31
2023-01-29T07:43:44.468Z,97073.09
2023-01-29T07:46:11.429Z,97065.69
2023-01-29T07:48:38.095Z,97063.19
2023-01-29T07:51:04.998Z,97057.22
2023-01-29T07:53:31.683Z,97057.53
2023-01-29T07:55:58.308Z,97062.38
2023-01-29T07:58:25.005Z,97060.50
2023-01-29T08:00:51.643Z,97057.34
2023-01-29T08:03:20.317Z,97049.88
2023-01-29T08:05:47.483Z,97042.09
2023-01-29T08:08:14.647Z,97038.94
2023-01-29T08:10:41.819Z,97041.59
2023-01-29T08:13:09.254Z,97033.00
2023-01-29T08:15:38.027Z,97035.09
2023-01-29T08:18:05.956Z,97035.00
2023-01-29T08:20:32.571Z,97042.97
2023-01-29T08:23:04.639Z,97035.59
2023-01-29T08:25:31.512Z,97041.91
2023-01-29T08:27:59.010Z,97047.69
2023-01-29T08:30:28.461Z,97046.00
2023-01-29T08:32:55.739Z,97050.22
2023-01-29T08:35:22.792Z,97056.34
2023-01-29T08:37:56.861Z,97068.25
2023-01-29T08:40:23.523Z,97068.56
2023-01-29T08:42:50.150Z,97060.41
2023-01-29T08:45:17.228Z,97061.19
2023-01-29T08:47:50.276Z,97066.13
2023-01-29T08:50:18.178Z,97073.28
2023-01-29T08:52:45.903Z,97077.25
2023-01-29T08:55:13.340Z,97082.84
2023-01-29T08:57:39.991Z,97089.91
2023-01-29T09:00:09.326Z,97096.34
2023-01-29T09:02:36.020Z,97087.94
2023-01-29T09:05:02.646Z,97092.88
2023-01-29T09:07:30.151Z,97096.47
2023-01-29T09:09:56.767Z,97099.22
2023-01-29T09:12:23.515Z,97108.06
2023-01-29T09:14:50.132Z,97111.59
2023-01-29T09:17:16.691Z,97114.56
2023-01-29T09:19:43.287Z,97104.66
2023-01-29T09:22:11.824Z,97097.38
2023-01-29T09:24:38.651Z,97102.31
2023-01-29T09:27:06.241Z,97107.28
2023-01-29T09:29:35.618Z,97096.25
2023-01-29T09:32:04.751Z,97103.63
2023-01-29T09:34:31.371Z,97106.69
2023-01-29T09:36:57.960Z,97111.56
2023-01-29T09:39:24.557Z,97104.97
2023-01-29T09:42:14.644Z,97108.28
2023-01-29T09:44:54.222Z,97100.41
2023-01-29T09:47:25.786Z,97104.53
2023-01-29T09:49:58.383Z,97107.81
2023-01-29T09:52:36.018Z,97108.59
2023-01-29T09:55:28.880Z,97113.41
2023-01-29T09:58:01.104Z,97113.19
2023-01-29T10:00:42.550Z,97112.13
2023-01-29T10:03:24.285Z,97113.72
2023-01-29T10:06:08.866Z,97120.06
2023-01-29T10:09:05.672Z,97120.41
2023-01-29T10:12:02.530Z,97128.16
2023-01-29T10:15:06.686Z,97122.34
2023-01-29T10:17:33.208Z,97138.94
2023-01-29T10:20:37.029Z,97132.50
2023-01-29T10:23:03.455Z,97130.25
2023-01-29T10:25:33.833Z,97127.41
2023-01-29T10:28:01.692Z,97131.53
2023-01-29T10:30:38.548Z,97137.34
2023-01-29T10:33:12.339Z,97138.28
2023-01-29T10:35:46.491Z,97142.91
2023-01-29T10:38:28.319Z,97136.78
2023-01-29T10:41:25.872Z,97132.19
2023-01-29T10:44:17.192Z,97135.50
2023-01-29T10:46:59.006Z,97118.28
2023-01-29T10:49:40.745Z,97119.00
2023-01-29T10:52:46.386Z,97110.66
2023-01-29T10:55:12.935Z,97103.50
2023-01-29T10:57:59.714Z,97103.19
2023-01-29T11:00:39.313Z,97107.69
2023-01-29T11:03:28.116Z,97098.91
2023-01-29T11:06:20.996Z,97089.13
2023-01-29T11:09:02.612Z,97086.25
2023-01-29T11:11:41.495Z,97082.56
2023-01-29T11:14:16.352Z,97073.88
2023-01-29T11:16:45.766Z,97080.13
2023-01-29T11:19:13.447Z,97073.38
2023-01-29T11:22:00.139Z,97066.22
2023-01-29T11:24:27.773Z,97060.97
2023-01-29T11:26:59.669Z,97058.66
2023-01-29T11:29:43.214Z,97045.88
2023-01-29T11:32:32.815Z,97050.06
2023-01-29T11:34:59.363Z,97049.13
2023-01-29T11:37:46.498Z,97044.63
2023-01-29T11:40:19.111Z,97042.81
2023-01-29T11:42:47.180Z,97044.13
2023-01-29T11:45:26.828Z,97039.72
2023-01-29T11:47:55.928Z,97038.44
2023-01-29T11:50:33.783Z,97030.28
2023-01-29T11:53:01.641Z,97030.72
2023-01-29T11:55:49.706Z,97025.34
2023-01-29T11:58:29.535Z,97023.72
2023-01-29T12:00:58.364Z,97016.88
2023-01-29T12:03:40.838Z,97008.19
2023-01-29T12:06:28.369Z,97011.63
2023-01-29T12:09:00.697Z,97004.06
2023-01-29T12:11:35.316Z,97003.03
2023-01-29T12:14:05.002Z,97000.22
2023-01-29T12:16:54.941Z,96999.97
2023-01-29T12:19:51.823Z,96995.16
2023-01-29T12:22:28.973Z,96985.06
2023-01-29T12:25:19.064Z,96985.44
2023-01-29T12:27:58.031Z,96979.41
2023-01-29T12:30:31.570Z,96977.69
2023-01-29T12:33:28.355Z,96968.72
2023-01-29T12:36:21.692Z,96971.25
2023-01-29T12:38:48.327Z,96971.81
2023-01-29T12:41:37.804Z,96955.16
2023-01-29T12:44:13.580Z,96951.50
2023-01-29T12:46:50.491Z,96951.16
2023-01-29T12:49:22.199Z,96951.16
2023-01-29T12:51:59.272Z,96944.50
2023-01-29T12:54:38.248Z,96941.34
2023-01-29T12:57:10.729Z,96944.03
2023-01-29T12:59:46.059Z,96931.16
2023-01-29T13:02:16.976Z,96926.41
2023-01-29T13:05:01.025Z,96922.44
2023-01-29T13:07:40.178Z,96917.28
2023-01-29T13:10:16.984Z,96914.91
2023-01-29T13:12:54.652Z,96917.47
2023-01-29T13:15:29.163Z,96905.28
2023-01-29T13:18:13.762Z,96912.41
2023-01-29T13:20:41.213Z,96901.63
2023-01-29T13:23:22.812Z,96902.09
2023-01-29T13:25:53.791Z,96896.75
2023-01-29T13:28:24.314Z,96897.09
2023-01-29T13:31:11.300Z,96888.75
2023-01-29T13:33:40.730Z,96892.81
2023-01-29T13:36:16.168Z,96888.38
2023-01-29T13:38:45.220Z,96878.38
2023-01-29T13:41:12.368Z,96883.31
2023-01-29T13:43:43.339Z,96883.63
2023-01-29T13:46:13.242Z,96872.03
2023-01-29T13:48:48.508Z,96879.31
2023-01-29T13:51:20.315Z,96877.94
2023-01-29T13:54:04.454Z,96884.28
2023-01-29T13:56:44.660Z,96885.91
2023-01-29T13:59:56.445Z,96893.28
2023-01-29T14:02:29.850Z,96883.03
2023-01-29T14:05:30.592Z,96882.09
2023-01-29T14:07:59.195Z,96881.63
2023-01-29T14:10:31.070Z,96883.91
2023-01-29T14:13:03.424Z,96883.81
2023-01-29T14:15:37.288Z,96873.22
2023-01-29T14:18:14.829Z,96875.97
2023-01-29T14:20:52.326Z,96870.28
2023-01-29T14:23:53.915Z,96867.19
2023-01-29T14:26:26.246Z,96871.56
2023-01-29T14:29:25.473Z,96865.56
2023-01-29T14:32:25.028Z,96864.47
2023-01-29T14:35:00.267Z,96865.72
2023-01-29T14:37:40.196Z,96870.22
2023-01-29T14:40:21.166Z,96862.09
2023-01-29T14:43:02.837Z,96864.41
2023-01-29T14:45:36.531Z,96859.28
2023-01-29T14:48:11.876Z,96850.09
2023-01-29T14:50:46.601Z,96856.69
2023-01-29T14:53:30.101Z,96856.84
2023-01-29T14:55:56.661Z,96861.16
2023-01-29T14:58:38.290Z,96860.97
2023-01-29T15:01:19.630Z,96851.56
2023-01-29T15:04:00.090Z,96843.97
2023-01-29T15:06:42.898Z,96849.00
2023-01-29T15:09:36.311Z,96849.47
2023-01-29T15:12:14.500Z,96856.94
2023-01-29T15:15:22.849Z,96849.78
2023-01-29T15:18:09.266Z,96851.97
2023-01-29T15:20:38.690Z,96853.91
2023-01-29T15:23:32.046Z,96859.56
2023-01-29T15:26:02.025Z,96854.88
2023-01-29T15:28:34.107Z,96854.78
2023-01-29T15:31:06.455Z,96856.47
2023-01-29T15:33:38.549Z,96859.06
2023-01-29T15:36:07.714Z,96866.88
2023-01-29T15:38:35.272Z,96872.47
2023-01-29T15:41:14.240Z,96868.56
2023-01-29T15:43:45.092Z,96863.75
2023-01-29T15:46:15.822Z,96867.28
2023-01-29T15:48:44.675Z,96874.34
2023-01-29T15:51:17.495Z,96883.63
2023-01-29T15:53:58.425Z,96879.97
2023-01-29T15:56:50.495Z,96885.63
2023-01-29T15:59:27.366Z,96892.75
2023-01-29T16:01:54.331Z,96896.59
2023-01-29T16:04:26.982Z,96881.72
2023-01-29T16:06:55.521Z,96882.13
2023-01-29T16:09:25.373Z,96888.41
2023-01-29T16:11:54.742Z,96891.84
2023-01-29T16:14:25.543Z,96882.59
2023-01-29T16:16:52.969Z,96890.09
2023-01-29T16:19:28.173Z,96887.19
2023-01-29T16:22:01.506Z,96898.22
2023-01-29T16:24:29.669Z,96900.56
2023-01-29T16:27:16.597Z,96903.78
2023-01-29T16:29:43.378Z,96899.53
2023-01-29T16:32:13.817Z,96903.72
2023-01-29T16:34:43.880Z,96908.50
2023-01-29T16:37:29.651Z,96894.53
2023-01-29T16:39:57.037Z,96896.91
2023-01-29T16:42:28.821Z,96905.69
2023-01-29T16:45:04.659Z,96914.88
2023-01-29T16:47:43.734Z,96912.13
2023-01-29T16:50:35.978Z,96923.97
2023-01-29T16:53:20.908Z,96922.78
2023-01-29T16:55:49.855Z,96925.50
2023-01-29T16:58:19.117Z,96926.78
2023-01-29T17:00:53.085Z,96923.84
2023-01-29T17:03:20.422Z,96927.13
2023-01-29T17:05:47.680Z,96935.28
2023-01-29T17:08:25.767Z,96936.22
2023-01-29T17:10:53.006Z,96937.78
2023-01-29T17:13:29.857Z,96941.63
2023-01-29T17:16:02.922Z,96945.44
2023-01-29T17:18:29.483Z,96949.78
2023-01-29T17:20:56.215Z,96945.84
2023-01-29T17:23:23.430Z,96942.72
2023-01-29T17:25:50.210Z,96941.88
2023-01-29T17:28:17.842Z,96943.91
2023-01-29T17:30:50.629Z,96948.03
2023-01-29T17:33:25.897Z,96951.34
2023-01-29T17:35:52.737Z,96950.50
2023-01-29T17:38:26.393Z,96953.19
2023-01-29T17:41:00.042Z,96948.47
2023-01-29T17:43:26.719Z,96945.97
2023-01-29T17:45:53.393Z,96947.25
2023-01-29T17:48:26.305Z,96945.84
2023-01-29T17:50:58.947Z,96956.50
2023-01-29T17:53:30.524Z,96948.56
2023-01-29T17:56:03.156Z,96948.75
2023-01-29T17:58:29.786Z,96946.53
2023-01-29T18:00:56.405Z,96943.47
2023-01-29T18:03:23.313Z,96946.78
2023-01-29T18:05:50.534Z,96949.53
2023-01-29T18:08:33.027Z,96941.31
2023-01-29T18:11:00.892Z,96939.34
2023-01-29T18:13:28.581Z,96930.88
2023-01-29T18:15:55.258Z,96929.63
2023-01-29T18:18:23.953Z,96928.25
2023-01-29T18:20:50.868Z,96927.88
2023-01-29T18:23:17.518Z,96927.78
2023-01-29T18:25:44.864Z,96922.31
2023-01-29T18:28:19.718Z,96919.78
2023-01-29T18:30:47.554Z,96921.00
2023-01-29T18:33:15.498Z,96922.16
2023-01-29T18:35:44.635Z,96917.69
2023-01-29T18:38:11.691Z,96913.75
2023-01-29T18:40:38.588Z,96913.38
2023-01-29T18:43:05.207Z,96915.72
2023-01-29T18:45:32.073Z,96927.22
2023-01-29T18:47:58.748Z,96917.44
2023-01-29T18:50:26.462Z,96917.66
2023-01-29T18:52:53.755Z,96911.59
2023-01-29T18:55:20.911Z,96921.41
2023-01-29T18:58:29.008Z,96911.69
2023-01-29T19:00:34.639Z,96915.38
2023-01-29T19:03:01.291Z,96916.19
2023-01-29T19:05:27.983Z,96913.28
2023-01-29T19:07:54.586Z,96920.03
2023-01-29T19:10:21.182Z,96923.94
2023-01-29T19:12:47.766Z,96917.00
2023-01-29T19:15:14.781Z,96916.66
2023-01-29T19:17:41.588Z,96920.81
2023-01-29T19:20:09.709Z,96923.25
2023-01-29T19:22:36.442Z,96920.44
2023-01-29T19:25:03.056Z,96928.97
2023-01-29T19:27:30.613Z,96929.41
2023-01-29T19:29:58.252Z,96929.81
2023-01-29T19:32:25.593Z,96926.97
2023-01-29T19:34:52.334Z,96922.50
2023-01-29T19:37:18.928Z,96922.72
2023-01-29T19:39:45.618Z,96921.69
2023-01-29T19:42:12.278Z,96919.25
2023-01-29T19:44:39.944Z,96915.97
2023-01-29T19:47:06.686Z,96920.81
2023-01-29T19:49:34.204Z,96904.34
2023-01-29T19:52:01.628Z,96905.34
2023-01-29T19:54:29.647Z,96896.41
2023-01-29T19:56:56.851Z,96896.06
2023-01-29T19:59:23.516Z,96901.75
2023-01-29T20:01:50.192Z,96897.34
2023-01-29T20:04:16.876Z,96897.75
2023-01-29T20:06:43.545Z,96898.16
2023-01-29T20:09:10.133Z,96903.84
2023-01-29T20:11:36.781Z,96910.72
2023-01-29T20:14:03.495Z,96907.09
2023-01-29T20:16:30.163Z,96901.63
2023-01-29T20:19:13.909Z,96904.25
2023-01-29T20:21:42.512Z,96900.16
2023-01-29T20:24:12.439Z,96906.44
2023-01-29T20:26:39.149Z,96908.28
2023-01-29T20:29:06.616Z,96912.53
2023-01-29T20:31:36.231Z,96901.38
2023-01-29T20:34:02.938Z,96895.91
2023-01-29T20:36:29.549Z,96893.47
2023-01-29T20:38:56.273Z,96894.06
2023-01-29T20:41:22.912Z,96886.75
2023-01-29T20:43:50.983Z,96888.34
2023-01-29T20:46:18.593Z,96885.47
2023-01-29T20:48:45.180Z,96889.53
2023-01-29T20:51:17.779Z,96884.28
2023-01-29T20:53:46.231Z,96881.03
2023-01-29T20:56:14.684Z,96878.16
2023-01-29T20:58:41.473Z,96878.16
2023-01-29T21:01:15.545Z,96866.97
2023-01-29T21:03:42.593Z,96868.16
2023-01-29T21:06:10.534Z,96870.34
2023-01-29T21:08:38.518Z,96878.66
2023-01-29T21:11:06.853Z,96880.97
2023-01-29T21:13:33.564Z,96874.06
2023-01-29T21:16:00.629Z,96875.81
2023-01-29T21:18:27.224Z,96883.16
2023-01-29T21:20:54.244Z,96888.88
2023-01-29T21:23:21.516Z,96885.56
2023-01-29T21:25:48.241Z,96879.53
2023-01-29T21:28:15.734Z,96887.31
2023-01-29T21:30:42.492Z,96886.44
2023-01-29T21:33:09.172Z,96877.56
2023-01-29T21:35:37.798Z,96878.97
2023-01-29T21:38:04.752Z,96884.09
2023-01-29T21:40:31.822Z,96876.38
2023-01-29T21:43:15.460Z,96880.19
2023-01-29T21:45:43.087Z,96872.75
2023-01-29T21:48:11.340Z,96867.72
2023-01-29T21:50:38.271Z,96872.59
2023-01-29T21:53:05.062Z,96861.06
2023-01-29T21:55:32.605Z,96863.25
2023-01-29T21:58:00.414Z,96864.84
2023-01-29T22:00:28.051Z,96860.81
2023-01-29T22:02:54.739Z,96862.81
2023-01-29T22:05:21.465Z,96863.53
2023-01-29T22:07:49.461Z,96864.03
2023-01-29T22:10:20.134Z,96856.25
2023-01-29T22:12:47.840Z,96857.03
2023-01-29T22:15:15.328Z,96857.75
2023-01-29T22:17:42.401Z,96862.41
2023-01-29T22:20:13.540Z,96856.75
2023-01-29T22:22:40.454Z,96858.97
2023-01-29T22:25:07.364Z,96855.94
2023-01-29T22:27:34.503Z,96842.97
2023-01-29T22:30:01.371Z,96848.47
2023-01-29T22:32:28.281Z,96843.53
2023-01-29T22:34:54.944Z,96839.25
2023-01-29T22:37:21.708Z,96831.50
2023-01-29T22:39:48.305Z,96820.03
2023-01-29T22:42:14.935Z,96821.22
2023-01-29T22:44:42.738Z,96816.22
2023-01-29T22:47:09.386Z,96818.13
2023-01-29T22:49:35.989Z,96816.09
2023-01-29T22:52:11.753Z,96822.06
2023-01-29T22:54:43.580Z,96816.22
2023-01-29T22:57:12.331Z,96816.00
2023-01-29T22:59:39.263Z,96810.88
2023-01-29T23:02:06.612Z,96815.56
2023-01-29T23:04:33.549Z,96806.47
2023-01-29T23:07:00.221Z,96800.38
2023-01-29T23:09:26.872Z,96805.63
2023-01-29T23:11:53.529Z,96799.97
2023-01-29T23:14:20.297Z,96794.06
2023-01-29T23:16:46.886Z,96797.53
2023-01-29T23:19:13.782Z,96796.50
2023-01-29T23:21:40.395Z,96806.44
2023-01-29T23:24:08.632Z,96795.75
2023-01-29T23:26:53.805Z,96807.66
2023-01-29T23:29:20.586Z,96806.44
2023-01-29T23:31:47.440Z,96794.31
2023-01-29T23:34:14.357Z,96793.13
2023-01-29T23:36:41.759Z,96789.66
2023-01-29T23:39:08.462Z,96789.47
2023-01-29T23:41:35.883Z,96793.91
2023-01-29T23:44:02.487Z,96791.91
2023-01-29T23:46:29.144Z,96788.38
2023-01-29T23:48:55.761Z,96791.38
2023-01-29T23:51:22.377Z,96790.16
2023-01-29T23:53:48.998Z,96787.72
2023-01-29T23:56:15.683Z,96793.38
2023-01-29T23:58:42.314Z,96795.63
